sensor_id;sensor_type;location;lat;lon;timestamp;temperature;humidity
44731;DHT22;30458;47.448;19.032;2024-01-15T00:01:49;1.60;99.90
44731;DHT22;30458;47.448;19.032;2024-01-15T00:11:54;1.60;99.90
44731;DHT22;30458;47.448;19.032;2024-01-15T00:21:55;1.60;99.90
44731;DHT22;30458;47.448;19.032;2024-01-15T00:31:56;1.80;99.90
44731;DHT22;30458;47.448;19.032;2024-01-15T00:41:56;1.90;99.90
44731;DHT22;30458;47.448;19.032;2024-01-15T00:52:00;1.90;99.90
44731;DHT22;30458;47.448;19.032;2024-01-15T01:02:01;1.90;99.90
44731;DHT22;30458;47.448;19.032;2024-01-15T01:12:05;1.50;99.90
44731;DHT22;30458;47.448;19.032;2024-01-15T01:22:08;1.70;99.90
44731;DHT22;30458;47.448;19.032;2024-01-15T01:32:09;1.90;99.90
44731;DHT22;30458;47.448;19.032;2024-01-15T01:42:10;2.00;99.90
44731;DHT22;30458;47.448;19.032;2024-01-15T01:52:12;1.90;99.90
44731;DHT22;30458;47.448;19.032;2024-01-15T02:02:13;1.60;99.90
44731;DHT22;30458;47.448;19.032;2024-01-15T02:12:19;1.50;99.90
44731;DHT22;30458;47.448;19.032;2024-01-15T02:22:20;1.50;99.90
44731;DHT22;30458;47.448;19.032;2024-01-15T02:32:23;1.40;99.90
44731;DHT22;30458;47.448;19.032;2024-01-15T02:42:28;1.40;99.90
44731;DHT22;30458;47.448;19.032;2024-01-15T02:52:29;1.30;99.90
44731;DHT22;30458;47.448;19.032;2024-01-15T03:02:30;1.10;99.90
44731;DHT22;30458;47.448;19.032;2024-01-15T03:12:41;0.70;99.90
44731;DHT22;30458;47.448;19.032;2024-01-15T03:22:44;0.90;99.90
44731;DHT22;30458;47.448;19.032;2024-01-15T03:32:47;0.80;99.90
44731;DHT22;30458;47.448;19.032;2024-01-15T03:42:48;0.70;99.90
44731;DHT22;30458;47.448;19.032;2024-01-15T03:52:48;0.90;99.90
44731;DHT22;30458;47.448;19.032;2024-01-15T04:02:52;0.80;99.90
44731;DHT22;30458;47.448;19.032;2024-01-15T04:12:55;0.70;99.90
44731;DHT22;30458;47.448;19.032;2024-01-15T04:22:58;0.70;99.90
44731;DHT22;30458;47.448;19.032;2024-01-15T04:32:59;0.60;99.90
44731;DHT22;30458;47.448;19.032;2024-01-15T04:42:59;0.10;99.90
44731;DHT22;30458;47.448;19.032;2024-01-15T04:53:03;0.00;99.90
44731;DHT22;30458;47.448;19.032;2024-01-15T05:03:04;0.00;99.90
44731;DHT22;30458;47.448;19.032;2024-01-15T05:13:05;-0.20;99.90
44731;DHT22;30458;47.448;19.032;2024-01-15T05:23:08;-0.50;99.90
44731;DHT22;30458;47.448;19.032;2024-01-15T05:33:11;-0.40;99.90
44731;DHT22;30458;47.448;19.032;2024-01-15T05:43:17;-0.30;99.90
44731;DHT22;30458;47.448;19.032;2024-01-15T05:53:20;-0.20;99.90
44731;DHT22;30458;47.448;19.032;2024-01-15T06:03:20;-0.20;99.90
44731;DHT22;30458;47.448;19.032;2024-01-15T06:13:21;-0.30;99.90
44731;DHT22;30458;47.448;19.032;2024-01-15T06:23:27;0.00;99.90
44731;DHT22;30458;47.448;19.032;2024-01-15T06:33:30;-0.10;99.90
44731;DHT22;30458;47.448;19.032;2024-01-15T06:43:33;-0.10;99.90
44731;DHT22;30458;47.448;19.032;2024-01-15T06:53:37;0.10;99.90
44731;DHT22;30458;47.448;19.032;2024-01-15T07:03:38;0.30;99.90
44731;DHT22;30458;47.448;19.032;2024-01-15T07:13:39;0.40;99.90
44731;DHT22;30458;47.448;19.032;2024-01-15T07:23:40;0.50;99.90
44731;DHT22;30458;47.448;19.032;2024-01-15T07:33:41;0.70;99.90
44731;DHT22;30458;47.448;19.032;2024-01-15T07:43:46;1.20;99.90
44731;DHT22;30458;47.448;19.032;2024-01-15T07:53:47;1.60;99.90
44731;DHT22;30458;47.448;19.032;2024-01-15T08:03:47;2.00;99.90
44731;DHT22;30458;47.448;19.032;2024-01-15T08:13:53;2.70;99.90
44731;DHT22;30458;47.448;19.032;2024-01-15T08:24:01;10.80;96.20
44731;DHT22;30458;47.448;19.032;2024-01-15T08:34:05;17.00;76.60
44731;DHT22;30458;47.448;19.032;2024-01-15T08:44:05;20.10;64.90
44731;DHT22;30458;47.448;19.032;2024-01-15T08:54:06;22.30;57.70
44731;DHT22;30458;47.448;19.032;2024-01-15T09:04:08;24.40;52.50
44731;DHT22;30458;47.448;19.032;2024-01-15T09:14:09;24.80;50.60
44731;DHT22;30458;47.448;19.032;2024-01-15T09:24:10;23.30;48.80
44731;DHT22;30458;47.448;19.032;2024-01-15T09:34:14;23.00;49.80
44731;DHT22;30458;47.448;19.032;2024-01-15T09:44:15;18.60;53.50
44731;DHT22;30458;47.448;19.032;2024-01-15T09:54:18;12.00;63.60
44731;DHT22;30458;47.448;19.032;2024-01-15T10:04:19;9.10;68.70
44731;DHT22;30458;47.448;19.032;2024-01-15T10:14:20;7.20;74.50
44731;DHT22;30458;47.448;19.032;2024-01-15T10:24:21;6.90;76.40
44731;DHT22;30458;47.448;19.032;2024-01-15T10:34:22;6.70;76.70
44731;DHT22;30458;47.448;19.032;2024-01-15T10:44:22;6.80;77.80
44731;DHT22;30458;47.448;19.032;2024-01-15T10:54:23;6.60;77.20
44731;DHT22;30458;47.448;19.032;2024-01-15T11:04:27;6.50;78.70
44731;DHT22;30458;47.448;19.032;2024-01-15T11:14:45;6.30;79.60
44731;DHT22;30458;47.448;19.032;2024-01-15T11:24:48;6.20;81.10
44731;DHT22;30458;47.448;19.032;2024-01-15T11:34:55;6.30;82.50
44731;DHT22;30458;47.448;19.032;2024-01-15T11:45:02;6.30;82.60
44731;DHT22;30458;47.448;19.032;2024-01-15T11:55:27;6.30;83.60
44731;DHT22;30458;47.448;19.032;2024-01-15T12:05:33;6.30;83.80
44731;DHT22;30458;47.448;19.032;2024-01-15T12:15:40;6.40;83.60
44731;DHT22;30458;47.448;19.032;2024-01-15T12:25:44;6.60;83.30
44731;DHT22;30458;47.448;19.032;2024-01-15T12:35:44;6.80;82.90
44731;DHT22;30458;47.448;19.032;2024-01-15T12:45:45;6.90;83.20
44731;DHT22;30458;47.448;19.032;2024-01-15T12:55:49;6.50;82.90
44731;DHT22;30458;47.448;19.032;2024-01-15T13:05:49;6.40;82.60
44731;DHT22;30458;47.448;19.032;2024-01-15T13:15:51;6.40;83.70
44731;DHT22;30458;47.448;19.032;2024-01-15T13:25:52;6.40;84.00
44731;DHT22;30458;47.448;19.032;2024-01-15T13:35:53;6.40;84.00
44731;DHT22;30458;47.448;19.032;2024-01-15T13:45:57;6.20;84.50
44731;DHT22;30458;47.448;19.032;2024-01-15T13:55:58;6.10;85.10
44731;DHT22;30458;47.448;19.032;2024-01-15T14:06:04;6.10;85.80
44731;DHT22;30458;47.448;19.032;2024-01-15T14:16:09;6.20;86.00
44731;DHT22;30458;47.448;19.032;2024-01-15T14:26:10;6.20;86.20
44731;DHT22;30458;47.448;19.032;2024-01-15T14:36:13;6.10;86.20
44731;DHT22;30458;47.448;19.032;2024-01-15T14:46:16;6.10;86.80
44731;DHT22;30458;47.448;19.032;2024-01-15T14:56:17;5.90;87.40
44731;DHT22;30458;47.448;19.032;2024-01-15T15:06:18;5.70;87.80
44731;DHT22;30458;47.448;19.032;2024-01-15T15:16:18;5.50;88.50
44731;DHT22;30458;47.448;19.032;2024-01-15T15:26:19;5.60;88.30
44731;DHT22;30458;47.448;19.032;2024-01-15T15:36:20;5.50;88.60
44731;DHT22;30458;47.448;19.032;2024-01-15T15:46:21;5.50;88.30
44731;DHT22;30458;47.448;19.032;2024-01-15T15:56:22;5.50;88.20
44731;DHT22;30458;47.448;19.032;2024-01-15T16:06:26;5.50;88.40
44731;DHT22;30458;47.448;19.032;2024-01-15T16:16:27;5.50;89.10
44731;DHT22;30458;47.448;19.032;2024-01-15T16:26:30;5.50;88.50
44731;DHT22;30458;47.448;19.032;2024-01-15T16:36:31;5.40;89.00
44731;DHT22;30458;47.448;19.032;2024-01-15T16:46:34;5.20;88.60
44731;DHT22;30458;47.448;19.032;2024-01-15T16:56:37;5.30;88.80
44731;DHT22;30458;47.448;19.032;2024-01-15T17:06:38;5.20;89.10
44731;DHT22;30458;47.448;19.032;2024-01-15T17:16:39;5.00;90.10
44731;DHT22;30458;47.448;19.032;2024-01-15T17:26:42;5.00;90.40
44731;DHT22;30458;47.448;19.032;2024-01-15T17:36:46;4.80;90.60
44731;DHT22;30458;47.448;19.032;2024-01-15T17:46:46;4.80;90.80
44731;DHT22;30458;47.448;19.032;2024-01-15T17:56:47;4.90;90.50
44731;DHT22;30458;47.448;19.032;2024-01-15T18:06:48;4.90;90.40
44731;DHT22;30458;47.448;19.032;2024-01-15T18:16:49;4.80;90.70
44731;DHT22;30458;47.448;19.032;2024-01-15T18:26:54;4.40;90.80
44731;DHT22;30458;47.448;19.032;2024-01-15T18:36:54;4.60;91.10
44731;DHT22;30458;47.448;19.032;2024-01-15T18:46:57;4.60;91.30
44731;DHT22;30458;47.448;19.032;2024-01-15T18:56:58;4.50;91.60
44731;DHT22;30458;47.448;19.032;2024-01-15T19:06:59;4.30;92.20
44731;DHT22;30458;47.448;19.032;2024-01-15T19:17:05;4.20;92.90
44731;DHT22;30458;47.448;19.032;2024-01-15T19:27:20;4.20;93.00
44731;DHT22;30458;47.448;19.032;2024-01-15T19:37:26;4.20;93.00
44731;DHT22;30458;47.448;19.032;2024-01-15T19:47:26;4.10;93.20
44731;DHT22;30458;47.448;19.032;2024-01-15T19:57:31;4.10;93.50
44731;DHT22;30458;47.448;19.032;2024-01-15T20:07:37;3.90;93.90
44731;DHT22;30458;47.448;19.032;2024-01-15T20:17:37;4.00;94.10
44731;DHT22;30458;47.448;19.032;2024-01-15T20:27:38;4.10;94.20
44731;DHT22;30458;47.448;19.032;2024-01-15T20:37:39;4.30;94.00
44731;DHT22;30458;47.448;19.032;2024-01-15T20:47:42;4.10;94.40
44731;DHT22;30458;47.448;19.032;2024-01-15T20:57:43;4.00;94.60
44731;DHT22;30458;47.448;19.032;2024-01-15T21:07:44;3.90;94.90
44731;DHT22;30458;47.448;19.032;2024-01-15T21:17:44;3.90;94.80
44731;DHT22;30458;47.448;19.032;2024-01-15T21:27:45;3.90;94.90
44731;DHT22;30458;47.448;19.032;2024-01-15T21:37:46;3.80;95.20
44731;DHT22;30458;47.448;19.032;2024-01-15T21:47:47;4.00;95.10
44731;DHT22;30458;47.448;19.032;2024-01-15T21:57:50;4.00;95.00
44731;DHT22;30458;47.448;19.032;2024-01-15T22:07:53;4.00;95.10
44731;DHT22;30458;47.448;19.032;2024-01-15T22:17:57;4.00;95.10
44731;DHT22;30458;47.448;19.032;2024-01-15T22:27:59;4.20;95.10
44731;DHT22;30458;47.448;19.032;2024-01-15T22:38:02;4.30;94.80
44731;DHT22;30458;47.448;19.032;2024-01-15T22:48:03;4.10;95.00
44731;DHT22;30458;47.448;19.032;2024-01-15T22:58:06;4.10;95.20
44731;DHT22;30458;47.448;19.032;2024-01-15T23:08:07;3.50;96.00
44731;DHT22;30458;47.448;19.032;2024-01-15T23:18:08;3.40;96.50
44731;DHT22;30458;47.448;19.032;2024-01-15T23:28:11;3.20;96.80
44731;DHT22;30458;47.448;19.032;2024-01-15T23:38:17;3.10;97.30
44731;DHT22;30458;47.448;19.032;2024-01-15T23:48:18;2.90;98.30
44731;DHT22;30458;47.448;19.032;2024-01-15T23:58:19;2.80;99.30
